createdAt,value
2023-03-22T00:02:17.447Z,64.61980420340713
2023-03-22T00:05:13.840Z,65.26062481169562
2023-03-22T00:08:15.431Z,63.8597127233744
2023-03-22T00:11:12.974Z,62.629083712047944
2023-03-22T00:14:08.516Z,60.63297316040463
2023-03-22T00:20:11.616Z,62.00782834095971
2023-03-22T00:23:09.184Z,62.19299511278464
2023-03-22T00:26:04.744Z,61.46703902808761
2023-03-22T00:29:00.315Z,57.76153480851504
2023-03-22T00:31:55.865Z,59.11025274124298
2023-03-22T00:34:51.414Z,59.655647208483764
2023-03-22T00:37:50.977Z,58.60993665432819
2023-03-22T00:40:47.488Z,59.08098029438252
2023-03-22T00:43:44.101Z,57.370269238447065
2023-03-22T00:46:39.619Z,59.14441583445955
2023-03-22T00:49:37.195Z,62.24286372337386
2023-03-22T00:52:32.740Z,65.44010253927534
2023-03-22T00:55:28.327Z,66.90591673792659
2023-03-22T00:58:23.910Z,62.99880065248968
2023-03-22T01:01:20.528Z,62.565282500318865
2023-03-22T01:04:18.174Z,60.02933097081234
2023-03-22T01:07:17.615Z,60.34620114469629
2023-03-22T01:10:13.121Z,60.56548531806721
2023-03-22T01:13:10.688Z,57.58921071206289
2023-03-22T01:16:08.251Z,60.06363150011764
2023-03-22T01:19:03.784Z,61.328825805864334
2023-03-22T01:21:59.359Z,59.48177018146495
2023-03-22T01:24:54.896Z,60.61074645335838
2023-03-22T01:27:50.496Z,60.23248788100477
2023-03-22T01:30:46.050Z,60.287539763049665
2023-03-22T01:33:41.544Z,59.70365180095654
2023-03-22T01:36:38.148Z,60.09135591918218
2023-03-22T01:39:34.707Z,59.40328520962594
2023-03-22T01:42:30.247Z,59.54259676277238
2023-03-22T01:45:38.841Z,59.29276734610023
2023-03-22T01:48:41.431Z,59.02658590889162
2023-03-22T01:51:43.356Z,60.51036146602849
2023-03-22T01:54:43.395Z,60.48324756049408
2023-03-22T01:57:40.951Z,61.21406734749737
2023-03-22T02:00:40.827Z,60.43367827919589
2023-03-22T02:03:41.068Z,59.07093805229917
2023-03-22T02:06:37.661Z,60.15874669093815
2023-03-22T02:09:35.226Z,58.93639556559036
2023-03-22T02:12:39.728Z,59.405803322085674
2023-03-22T02:15:42.325Z,60.298292354499516
2023-03-22T02:18:55.827Z,57.744168440826755
2023-03-22T02:22:09.355Z,61.94576358171451
2023-03-22T02:25:17.812Z,63.18981187157191
2023-03-22T02:28:26.381Z,60.439100394416094
2023-03-22T02:31:37.013Z,58.9918803677612
2023-03-22T02:34:43.387Z,59.9410055090046
2023-03-22T02:37:54.981Z,60.30230023416897
2023-03-22T02:41:00.450Z,60.48941920711996
2023-03-22T02:44:07.018Z,58.94227186873595
2023-03-22T02:47:10.560Z,59.06845413004423
2023-03-22T02:50:14.116Z,60.70146954025028
2023-03-22T02:53:15.685Z,60.91339258492161
2023-03-22T02:56:19.179Z,60.18449665512946
2023-03-22T02:59:18.712Z,61.35225674636885
2023-03-22T03:02:18.482Z,59.611286074188484
2023-03-22T03:05:18.808Z,59.6031715431302
2023-03-22T03:08:18.437Z,59.456950204588686
2023-03-22T03:11:13.939Z,59.935227156393964
2023-03-22T03:14:14.489Z,59.559245333825835
2023-03-22T03:17:13.040Z,60.97539406142382
2023-03-22T03:20:19.601Z,61.73896498082875
2023-03-22T03:23:25.090Z,59.74544634406067
2023-03-22T03:26:29.649Z,59.83601012698762
2023-03-22T03:29:32.221Z,61.5418793237321
2023-03-22T03:32:35.801Z,59.61437425175605
2023-03-22T03:35:38.356Z,59.977689720496556
2023-03-22T03:38:38.843Z,58.89347733223871
2023-03-22T03:41:36.437Z,64.28986899395747
2023-03-22T03:44:32.988Z,62.5222979048925
2023-03-22T03:47:30.527Z,59.5555383757226
2023-03-22T03:50:27.057Z,63.09693236157556
2023-03-22T03:53:23.653Z,64.48288577841538
2023-03-22T03:56:19.216Z,62.91278987515
2023-03-22T03:59:15.778Z,60.88887952083175
2023-03-22T04:02:12.353Z,64.29865160066082
2023-03-22T04:05:08.853Z,64.88666344850668
2023-03-22T04:08:05.458Z,64.08820666280435
2023-03-22T04:11:01.021Z,66.18414806759219
2023-03-22T04:13:56.555Z,68.3158259892406
2023-03-22T04:16:52.123Z,66.26587992466943
2023-03-22T04:19:47.697Z,63.18270511753327
2023-03-22T04:22:48.247Z,63.404885511893056
2023-03-22T04:25:49.757Z,64.17108612861514
2023-03-22T04:28:45.293Z,64.69027926885084
2023-03-22T04:31:40.897Z,64.6562356269132
2023-03-22T04:34:37.482Z,65.72352720262907
2023-03-22T04:37:34.034Z,67.70396844798793
2023-03-22T04:40:34.545Z,69.54535946199455
2023-03-22T04:43:35.114Z,71.10105624130642
2023-03-22T04:46:34.711Z,74.06618258643189
2023-03-22T04:49:31.294Z,77.1270927423737
2023-03-22T04:52:26.767Z,77.42728740387497
2023-03-22T04:55:22.344Z,68.4794743578954
2023-03-22T04:58:21.925Z,68.71001842059091
2023-03-22T05:01:19.529Z,65.94806207326678
2023-03-22T05:04:17.984Z,67.11413528931804
2023-03-22T05:07:13.575Z,65.43423714299283
2023-03-22T05:10:10.162Z,67.72866491153916
2023-03-22T05:13:05.666Z,70.78174913650368
2023-03-22T05:16:02.276Z,71.36291466762863
2023-03-22T05:18:57.796Z,69.66266401621178
2023-03-22T05:22:01.352Z,65.1972947982373
2023-03-22T05:24:56.917Z,64.90556734350827
2023-03-22T05:28:02.440Z,66.3450638941617
2023-03-22T05:30:57.977Z,65.97168587211655
2023-03-22T05:33:54.555Z,65.31587190317202
2023-03-22T05:36:52.089Z,65.30777089728032
2023-03-22T05:39:48.683Z,64.76698407019016
2023-03-22T05:42:44.253Z,63.628100279456646
2023-03-22T05:45:40.781Z,63.38837596639881
2023-03-22T05:48:37.358Z,61.46004923536837
2023-03-22T05:51:40.932Z,63.49268125578242
2023-03-22T05:54:36.429Z,66.02667067509701
2023-03-22T05:57:32.025Z,62.36906072512008
2023-03-22T06:00:28.613Z,61.99393779416695
2023-03-22T06:03:28.210Z,63.52839579320488
2023-03-22T06:06:27.703Z,60.263157975533154
2023-03-22T06:09:23.207Z,60.52496012809998
2023-03-22T06:12:22.823Z,60.54305633108173
2023-03-22T06:15:18.391Z,61.46750384865389
2023-03-22T06:18:14.959Z,61.666285368296535
2023-03-22T06:21:10.506Z,62.42196487143991
2023-03-22T06:27:11.588Z,60.042224770219995
2023-03-22T06:30:08.183Z,58.571552312086325
2023-03-22T06:33:05.680Z,57.32754854019601
2023-03-22T06:36:02.265Z,57.649411168279144
2023-03-22T06:38:58.812Z,57.77730675271856
2023-03-22T06:41:54.373Z,58.39096775750519
2023-03-22T06:44:49.943Z,58.507313956946746
2023-03-22T06:47:45.541Z,57.60737857205819
2023-03-22T06:50:44.444Z,57.59754626625502
2023-03-22T06:53:39.550Z,56.95197192357824
2023-03-22T06:56:36.162Z,56.68783849219013
2023-03-22T06:59:31.710Z,58.950656071161326
2023-03-22T07:02:27.308Z,56.811414541041096
2023-03-22T07:05:22.866Z,57.15013673722165
2023-03-22T07:08:19.426Z,56.07232269871982
2023-03-22T07:11:15.001Z,56.35437306451174
2023-03-22T07:14:10.525Z,57.858501280751014
2023-03-22T07:17:06.082Z,58.9627650165112
2023-03-22T07:20:03.679Z,58.589886159488614
2023-03-22T07:22:59.180Z,58.732164733412624
2023-03-22T07:25:55.794Z,57.68335723862224
2023-03-22T07:28:51.314Z,58.327018840605746
2023-03-22T07:31:47.948Z,57.98494514800404
2023-03-22T07:34:43.459Z,58.347724469482245
2023-03-22T07:37:40.022Z,57.04449253562272
2023-03-22T07:40:36.820Z,56.686738572311484
2023-03-22T07:43:35.377Z,57.37640603873176
2023-03-22T07:46:32.726Z,57.249383379729615
2023-03-22T07:49:28.218Z,56.84925037370823
2023-03-22T07:52:23.801Z,56.26159334792405
2023-03-22T07:55:19.364Z,56.31501190152824
2023-03-22T07:58:14.937Z,55.82306204328611
2023-03-22T08:01:10.469Z,55.76966306172186
2023-03-22T08:04:06.019Z,55.4670167419921
2023-03-22T08:07:05.626Z,55.34098464694518
2023-03-22T08:10:02.174Z,55.3498126033027
2023-03-22T08:12:59.695Z,55.513537841630836
2023-03-22T08:15:55.330Z,55.03597200463122
2023-03-22T08:18:50.874Z,55.07602980233071
2023-03-22T08:21:46.424Z,55.00535351143569
2023-03-22T08:24:41.963Z,55.05612961420733
2023-03-22T08:27:37.535Z,55.21922930700245
2023-03-22T08:30:34.074Z,54.14208728262847
2023-03-22T08:33:29.712Z,55.34501745106871
2023-03-22T08:36:31.206Z,52.96371036989082
2023-03-22T08:39:27.121Z,52.67509215554673
2023-03-22T08:42:22.309Z,52.89182097020067
2023-03-22T08:45:18.885Z,52.97936573398913
2023-03-22T08:48:14.452Z,52.35285756055332
2023-03-22T08:51:12.016Z,51.44170770976101
2023-03-22T08:54:08.581Z,52.04281762436034
2023-03-22T08:57:11.095Z,50.671757567201794
2023-03-22T09:00:07.686Z,49.238846884686126
2023-03-22T09:03:04.181Z,48.586017958947565
2023-03-22T09:05:59.764Z,49.15271420923497
2023-03-22T09:08:56.354Z,48.20907154058629
2023-03-22T09:11:52.948Z,46.697643631036044
2023-03-22T09:14:49.463Z,46.03378712865211
2023-03-22T09:17:45.028Z,45.45751469464685
2023-03-22T09:20:40.788Z,45.66336810667479
2023-03-22T09:23:37.128Z,45.6099520934702
2023-03-22T09:26:33.702Z,44.68199205897868
2023-03-22T09:29:29.244Z,45.28624572424548
2023-03-22T09:32:24.850Z,45.916933122403
2023-03-22T09:35:20.400Z,45.31468533935809
2023-03-22T09:38:16.947Z,44.118765018449096
2023-03-22T09:41:21.514Z,44.0648725872251
2023-03-22T09:44:23.030Z,42.56787104880906
2023-03-22T09:47:30.713Z,41.78165827545849
2023-03-22T09:50:33.095Z,40.53733300540978
2023-03-22T09:53:31.656Z,40.93478185523773
2023-03-22T09:56:31.206Z,42.20658386990239
2023-03-22T09:59:34.717Z,41.461759144489235
2023-03-22T10:02:38.422Z,39.74857301639703
2023-03-22T10:05:43.817Z,40.62239782151216
2023-03-22T10:08:53.363Z,39.39888635753573
2023-03-22T10:11:59.856Z,38.720928607203156
2023-03-22T10:15:03.450Z,39.64139565168989
2023-03-22T10:18:01.944Z,39.63596030605
2023-03-22T10:21:05.545Z,38.38191880416979
2023-03-22T10:24:07.059Z,37.578840729831384
2023-03-22T10:27:14.600Z,37.46563706217117
2023-03-22T10:30:16.159Z,37.065358051102685
2023-03-22T10:33:19.683Z,36.81681251834188
2023-03-22T10:36:16.266Z,37.49390103574178
2023-03-22T10:39:24.771Z,35.56480193984603
2023-03-22T10:42:23.295Z,33.68491961326513
2023-03-22T10:45:23.861Z,35.848542728489505
2023-03-22T10:48:26.470Z,34.766529244944316
2023-03-22T10:51:26.011Z,34.72451602221885
2023-03-22T10:54:26.065Z,34.65653445453743
2023-03-22T10:57:22.072Z,34.03004446321405
2023-03-22T11:00:20.621Z,33.22586976632915
2023-03-22T11:03:25.163Z,31.35458617845302
2023-03-22T11:06:35.716Z,32.38673136915527
2023-03-22T11:09:33.234Z,30.56884292497891
2023-03-22T11:12:29.786Z,31.78028167456261
2023-03-22T11:15:27.326Z,31.93878035582779
2023-03-22T11:18:24.925Z,32.20338106541456
2023-03-22T11:21:30.473Z,32.1874828255285
2023-03-22T11:24:31.015Z,33.97711669242735
2023-03-22T11:27:36.546Z,32.7364192422456
2023-03-22T11:30:37.116Z,31.692506588680725
2023-03-22T11:33:35.660Z,31.74162996701545
2023-03-22T11:36:37.235Z,27.90211303237573
2023-03-22T11:39:33.744Z,25.704255291585437
2023-03-22T11:42:34.318Z,26.48941801565139
2023-03-22T11:45:30.874Z,28.27174985373965
2023-03-22T11:48:28.544Z,29.616214769772462
2023-03-22T11:51:29.984Z,28.38895961343896
2023-03-22T11:54:30.519Z,27.605297235105528
2023-03-22T11:57:28.065Z,27.934544441715293
2023-03-22T12:00:29.645Z,27.987966486414653
2023-03-22T12:03:30.421Z,30.195051606804796
2023-03-22T12:06:28.768Z,29.68880027844851
2023-03-22T12:09:32.289Z,28.859804899232717
2023-03-22T12:12:30.839Z,30.33277012383372
2023-03-22T12:15:30.364Z,30.912546057548795
2023-03-22T12:18:31.895Z,26.75914845218051
2023-03-22T12:21:29.450Z,25.095851265281517
2023-03-22T12:24:28.036Z,26.113115445560762
2023-03-22T12:27:27.601Z,26.125757044549076
2023-03-22T12:30:28.139Z,25.436738992408042
2023-03-22T12:33:27.939Z,24.268520427156115
2023-03-22T12:36:32.260Z,24.49860112183128
2023-03-22T12:39:30.785Z,23.853337138676338
2023-03-22T12:42:40.664Z,24.8801206523781
2023-03-22T12:45:40.142Z,23.96158378030782
2023-03-22T12:48:39.533Z,23.495158158830606
2023-03-22T12:51:37.951Z,25.370882314410316
2023-03-22T12:54:35.542Z,22.15284711634718
2023-03-22T12:57:31.047Z,23.180660997201255
2023-03-22T13:00:33.635Z,21.65748728507682
2023-03-22T13:03:38.291Z,22.13554887443558
2023-03-22T13:06:41.683Z,20.531554262297018
2023-03-22T13:09:49.278Z,21.964494273213685
2023-03-22T13:13:00.772Z,18.207289547711298
2023-03-22T13:16:07.363Z,18.697141040589027
2023-03-22T13:19:22.826Z,19.135975560020793
2023-03-22T13:22:26.391Z,18.622363909536663
2023-03-22T13:25:34.872Z,23.157126259836673
2023-03-22T13:28:37.423Z,25.919772154741196
2023-03-22T13:31:36.938Z,25.91541050958386
2023-03-22T13:34:38.543Z,23.24125137532259
2023-03-22T13:37:40.024Z,23.050586679156428
2023-03-22T13:40:45.583Z,23.413709931884622
2023-03-22T13:43:46.128Z,23.13723140397255
2023-03-22T13:46:49.664Z,19.9105280073199
2023-03-22T13:49:54.242Z,19.099759385159388
2023-03-22T13:53:02.784Z,18.57320895867004
2023-03-22T13:56:07.298Z,19.70275008831479
2023-03-22T13:59:10.842Z,20.71675278643781
2023-03-22T14:05:18.974Z,18.655264947973127
2023-03-22T14:08:20.479Z,18.395215188915177
2023-03-22T14:11:22.992Z,18.152190949415054
2023-03-22T14:14:22.565Z,17.95296081337963
2023-03-22T14:17:27.146Z,18.34347873882609
2023-03-22T14:20:25.732Z,16.58283354526025
2023-03-22T14:53:44.699Z,16.68086326587965
2023-03-22T14:56:50.109Z,16.51064939994192
2023-03-22T14:59:50.673Z,15.045635341131602
2023-03-22T15:02:56.292Z,16.762187657723338
2023-03-22T15:05:53.754Z,15.34607512835818
2023-03-22T15:09:01.484Z,14.156554115634744
2023-03-22T15:12:00.888Z,15.267828507138608
2023-03-22T15:14:57.402Z,14.621044757766338
2023-03-22T15:17:54.983Z,15.23881005007565
2023-03-22T15:21:09.471Z,16.718097370291446
2023-03-22T15:24:12.022Z,18.50640059979661
2023-03-22T15:27:12.580Z,18.41826322053555
2023-03-22T15:30:10.212Z,16.570691217014442
2023-03-22T15:33:08.742Z,17.411248852775163
2023-03-22T15:36:07.275Z,18.113346583992374
2023-03-22T15:39:12.817Z,19.445661001831027
2023-03-22T15:42:16.348Z,21.22787451494167
2023-03-22T15:45:12.875Z,21.340963479842298
2023-03-22T15:48:17.443Z,20.983297197166628
2023-03-22T15:51:15.983Z,20.704030444967128
2023-03-22T15:54:14.532Z,21.858538860508865
2023-03-22T15:57:18.055Z,23.17441367555165
2023-03-22T16:00:22.631Z,22.43462517559659
2023-03-22T16:03:30.135Z,21.94690703749173
2023-03-22T16:06:28.712Z,22.41218162488471
2023-03-22T16:09:25.245Z,23.41702505413368
2023-03-22T16:12:21.833Z,23.931422305107112
2023-03-22T16:15:19.370Z,24.17880307720913
2023-03-22T16:18:15.947Z,23.563429465696796
2023-03-22T16:21:12.501Z,23.415345521863717
2023-03-22T16:24:08.051Z,23.81728408231034
2023-03-22T16:27:10.598Z,24.35065483242539
2023-03-22T16:30:09.170Z,22.869336662733176
2023-03-22T16:33:05.710Z,21.771286023883818
2023-03-22T16:36:09.893Z,21.767750915085013
2023-03-22T16:39:05.782Z,22.461137029262627
2023-03-22T16:42:02.395Z,23.582966226354515
2023-03-22T16:44:57.896Z,25.44798084164183
2023-03-22T16:47:56.523Z,26.839453368482015
2023-03-22T16:50:54.071Z,27.656199540343387
2023-03-22T16:53:50.607Z,28.323966600460974
2023-03-22T16:56:48.146Z,28.792983982379745
2023-03-22T17:02:45.265Z,29.74523911951757
2023-03-22T17:05:42.127Z,30.331897417157965
2023-03-22T17:08:46.373Z,30.873901323805537
2023-03-22T17:11:50.930Z,31.153058137201064
2023-03-22T17:14:49.497Z,31.772132476035605
2023-03-22T17:17:46.064Z,32.67455602797968
2023-03-22T17:20:44.588Z,33.4095119442169
2023-03-22T17:23:42.125Z,34.22764086564342
2023-03-22T17:26:37.684Z,34.56116000449614
2023-03-22T17:29:34.263Z,35.0011950772476
2023-03-22T17:32:49.719Z,35.203966997256025
2023-03-22T17:35:30.324Z,36.160279883802495
2023-03-22T17:38:34.638Z,36.90706111910772
2023-03-22T17:41:28.529Z,37.58555058717068
2023-03-22T17:44:23.997Z,37.88826763519241
2023-03-22T17:47:36.993Z,37.65285785364514
2023-03-22T17:50:21.122Z,38.43713976673621
2023-03-22T17:53:29.127Z,37.98933778501967
2023-03-22T17:56:51.679Z,38.722523445253934
2023-03-22T17:59:17.757Z,39.09717999693151
2023-03-22T18:02:18.854Z,39.06906875218736
2023-03-22T18:05:24.686Z,40.27022601212278
2023-03-22T18:08:28.137Z,41.3582875380022
2023-03-22T18:11:19.973Z,40.28637654298485
2023-03-22T18:14:24.861Z,40.5374263235793
2023-03-22T18:17:16.217Z,40.0403321328108
2023-03-22T18:20:24.720Z,40.207972192639666
2023-03-22T18:23:13.221Z,40.58140634101041
2023-03-22T18:26:27.203Z,40.514256177920956
2023-03-22T18:29:14.270Z,41.51327412113574
2023-03-22T18:32:18.493Z,41.67941859883871
2023-03-22T18:35:16.371Z,41.64546828799956
2023-03-22T18:41:31.985Z,43.03050769062345
2023-03-22T18:44:13.053Z,43.30203224341662
2023-03-22T18:47:09.680Z,43.834381496573734
2023-03-22T18:50:06.186Z,43.72283921123467
2023-03-22T18:53:18.233Z,44.30441841756589
2023-03-22T18:56:09.854Z,45.26967608359008
2023-03-22T18:59:07.815Z,45.29551127250404
2023-03-22T19:02:11.470Z,45.157191370643076
2023-03-22T19:05:06.943Z,45.46756723195216
2023-03-22T19:08:19.786Z,46.12563283079567
2023-03-22T19:11:05.036Z,45.63181445204651
2023-03-22T19:14:49.034Z,45.532174493913935
2023-03-22T19:17:02.155Z,46.79959263002539
2023-03-22T19:20:08.691Z,47.27019952090887
2023-03-22T19:23:04.224Z,48.78111845491847
2023-03-22T19:26:00.767Z,48.5187517187142
2023-03-22T19:28:57.349Z,47.6835868086736
2023-03-22T19:31:55.929Z,48.16827988898022
2023-03-22T19:34:57.457Z,48.54881937922979
2023-03-22T19:37:58.990Z,48.64715773059239
2023-03-22T19:44:10.122Z,50.27629228945168
2023-03-22T19:47:05.692Z,51.247899740051196
2023-03-22T19:50:12.165Z,50.40932449314483
2023-03-22T19:53:40.253Z,50.2593817593295
2023-03-22T19:56:10.288Z,51.955439024741224
2023-03-22T19:59:11.935Z,51.9482623415733
2023-03-22T20:02:12.336Z,50.543761970883004
2023-03-22T20:05:17.678Z,50.48606800060245
2023-03-22T20:08:18.453Z,49.50245249289867
2023-03-22T20:11:27.608Z,49.77232864850734
2023-03-22T20:14:21.582Z,49.46957514842697
2023-03-22T20:17:26.384Z,49.47939478995461
2023-03-22T20:20:26.599Z,49.60990195357921
2023-03-22T20:23:27.152Z,49.65283774226186
2023-03-22T20:26:23.719Z,50.03646591358754
2023-03-22T20:29:24.263Z,50.719312807250084
2023-03-22T20:32:26.823Z,51.05299409878993
2023-03-22T20:35:23.408Z,50.34663653010741
2023-03-22T20:38:24.955Z,50.84838799736666
2023-03-22T20:41:20.538Z,51.05749632089702
2023-03-22T20:44:22.050Z,50.45983365023541
2023-03-22T20:47:17.595Z,50.34046804193155
2023-03-22T20:50:14.152Z,50.71447709351893
2023-03-22T20:53:14.693Z,50.14165073002928
2023-03-22T20:56:18.284Z,50.403749110775834
2023-03-22T20:59:19.847Z,50.2002647451432
2023-03-22T21:02:22.336Z,50.32692264693845
2023-03-22T21:05:23.912Z,51.17224489760547
2023-03-22T21:08:24.453Z,52.27441687472809
2023-03-22T21:11:24.947Z,52.711029675675555
2023-03-22T21:14:26.526Z,52.36398749590926
2023-03-22T21:20:32.945Z,51.51659563931861
2023-03-22T21:23:34.160Z,51.697259380858135
2023-03-22T21:26:36.705Z,52.1066924475105
2023-03-22T21:29:37.269Z,52.75397481703151
2023-03-22T21:32:39.810Z,52.874326666172514
2023-03-22T21:38:54.874Z,52.77227246745943
2023-03-22T21:41:56.389Z,52.56697233367706
2023-03-22T21:44:57.996Z,53.123352565557724
2023-03-22T21:48:02.510Z,52.922478457274664
2023-03-22T21:51:04.027Z,52.52668226574057
2023-03-22T21:54:04.616Z,53.75739355738973
2023-03-22T21:57:01.168Z,53.44632694745741
2023-03-22T21:59:57.746Z,52.745636315684685
2023-03-22T22:02:54.249Z,51.581382157602015
2023-03-22T22:05:56.797Z,53.314926938532956
2023-03-22T22:08:54.369Z,53.85455295066028
2023-03-22T22:11:49.997Z,53.54886358665886
2023-03-22T22:14:45.504Z,54.047841127189436
2023-03-22T22:17:43.064Z,54.12311284838939
2023-03-22T22:20:45.587Z,53.79164196874633
2023-03-22T22:23:45.163Z,54.19881026153314
2023-03-22T22:26:43.701Z,54.2563003825638
2023-03-22T22:29:39.253Z,53.998232053478006
2023-03-22T22:32:35.836Z,54.259648192937966
2023-03-22T22:35:32.388Z,54.19290589886971
2023-03-22T22:38:33.945Z,54.17878374667637
2023-03-22T22:41:34.474Z,54.09328292370489
2023-03-22T22:44:30.012Z,53.65800344080843
2023-03-22T22:47:31.640Z,54.16541490322021
2023-03-22T22:50:32.169Z,56.05578349519779
2023-03-22T22:53:32.637Z,56.27812122872113
2023-03-22T22:56:36.235Z,56.67676749585417
2023-03-22T22:59:31.779Z,55.567668171926314
2023-03-22T23:02:27.363Z,54.60714575936851
2023-03-22T23:05:23.871Z,53.97383934603223
2023-03-22T23:08:20.483Z,53.84707707395488
2023-03-22T23:11:19.996Z,55.09007529870034
2023-03-22T23:14:18.558Z,56.236383396816116
2023-03-22T23:17:18.132Z,55.520444987898365
2023-03-22T23:20:15.702Z,56.14799943613169
2023-03-22T23:23:20.212Z,55.99476863224988
2023-03-22T23:29:25.279Z,56.26939878504471
2023-03-22T23:32:21.901Z,57.72437258475053
2023-03-22T23:35:17.496Z,57.66214225357332
2023-03-22T23:38:13.971Z,56.95210551664171
2023-03-22T23:44:18.090Z,56.30715026932096
2023-03-22T23:47:13.622Z,56.92446552472094
2023-03-22T23:50:10.191Z,57.848833691649446
2023-03-22T23:53:07.743Z,56.58665287110379
2023-03-22T23:56:04.326Z,57.07547337160125
2023-03-22T23:59:00.884Z,56.88252144709208
